YYZ weather

Lester B. Pearson International Airport
Toronto, Ontario, Canada

Public forecast

Using degrees Celsius for public forecast. Weather courtesy of forecast.io.

METAR (pilot weather report)

Retrieved 2017/06/27 03:00 UTC (56 seconds ago):

CYYZ 270300Z 26007KT 15SM FEW100 13/09 A2993 RMK AC2 SLP136

TAF (pilot weather forecast)

Retrieved 2017/06/27 03:39 UTC (0 seconds ago):

TAF CYYZ 270238Z 2703/2806 25005KT P6SM FEW060 FM271500 29015KT P6SM -SHRA BKN030 PROB30 2715/2718 VRB15G30KT 4SM TSRA BKN025CB FM271800 31010G20KT P6SM -SHRA BKN050 PROB30 2718/2721 VRB15G25KT 21/2SM +TSRA BR BKN025CB FM272100 30015G25KT P6SM FEW040 FM280000 29008G18KT P6SM SKC BECMG 2801/2803 27007KT RMK NXT FCST BY 270600Z